• Join FlightAware (Why Join?)
  • Login
  • US Flag 
06:48AM EDT


 

Airport Tracker/Info


-or-


 

Live Flight TrackerFlight Track Log ✈ N612CT ✈ 13-Sep-2013 ✈ KTLH - KAPF

Flight Track Log - Related Links

Times and Time Zones

All times are in EDT time to prevent confusion due to time zone crossing. See the N612CT flight status page for this flight to view local times or setup timezone preferences in your user account.

Time Position Orientation Groundspeed Altitude Reporting Facility
EDT Latitude Longitude Course Direction KTS MPH feet Rate Location/Type
06:14PM 30.1507 -84.1949 151° Southeast  Level Estimated
06:15PM 30.1097 -84.1690 151° Southeast  Level Estimated
06:16PM 30.0687 -84.1431 151° Southeast  Level Estimated
06:17PM 30.0277 -84.1172 151° Southeast  Level Estimated
06:18PM 29.9867 -84.0914 151° Southeast  Level Estimated
06:19PM 29.9456 -84.0656 151° Southeast  Level Estimated
06:20PM 29.9046 -84.0398 151° Southeast  Level Estimated
06:21PM 29.8635 -84.0140 151° Southeast  Level Estimated
06:21PM 30.1814 -83.8536 151° Southeast 177 204 9,000  Level Jacksonville Center
06:22PM 29.8225 -83.9882 151° Southeast  Level Estimated
06:22PM 30.1525 -83.8125 129° Southeast 177 204 9,000  Level Jacksonville Center
06:23PM 29.7814 -83.9625 151° Southeast  Level Estimated
06:23PM 30.1217 -83.7692 129° Southeast 182 209 9,000  Level Jacksonville Center
06:24PM 29.7404 -83.9368 151° Southeast  Level Estimated
06:24PM 30.0906 -83.7256 129° Southeast 182 209 9,000  Level Jacksonville Center
06:25PM 29.6993 -83.9110 151° Southeast  Level Estimated
06:25PM 30.0594 -83.6797 128° Southeast 182 209 9,000  Level Jacksonville Center
06:26PM 30.0264 -83.6386 133° Southeast 182 209 9,000  Level Jacksonville Center
06:27PM 29.9972 -83.5953 128° Southeast 182 209 9,000  Level Jacksonville Center
06:28PM 29.9664 -83.5519 129° Southeast 182 209 9,000  Level Jacksonville Center
06:29PM 29.9353 -83.5111 131° Southeast 177 204 9,000  Level Jacksonville Center
06:30PM 29.9061 -83.4678 128° Southeast 177 204 9,000  Level Jacksonville Center
06:31PM 29.8728 -83.4267 133° Southeast 177 204 9,000  Level Jacksonville Center
06:32PM 29.8439 -83.3833 128° Southeast 177 204 9,000  Level Jacksonville Center
06:33PM 29.8106 -83.3378 130° Southeast 177 204 9,000  Level Jacksonville Center
06:34PM 29.7794 -83.2947 130° Southeast 177 204 9,000  Level Jacksonville Center
06:35PM 29.7461 -83.2539 133° Southeast 177 204 9,000  Level Jacksonville Center
06:36PM 29.7192 -83.2131 127° Southeast 176 203 9,000  Level Jacksonville Center
06:36PM 29.6961 -83.1842 133° Southeast 178 205 9,000  Level Jacksonville Center
06:37PM 29.6858 -83.1675 125° Southeast 176 203 9,000  Level Jacksonville Center
06:37PM 29.6733 -83.1508 131° Southeast 175 201 9,000  Level Jacksonville Center
06:38PM 29.6567 -83.1267 128° Southeast 176 203 9,000  Level Jacksonville Center
06:38PM 29.6381 -83.1075 138° Southeast 178 205 9,000  Level Jacksonville Center
06:39PM 29.6256 -83.0836 121° Southeast 176 203 9,000  Level Jacksonville Center
06:39PM 29.5983 -83.0525 135° Southeast 181 208 9,000  Level Jacksonville Center
06:40PM 29.5900 -83.0406 129° Southeast 176 203 9,000  Level Jacksonville Center
06:40PM 29.5608 -83.0264 157° South 172 198 9,000  Level Jacksonville Center
06:41PM 29.5483 -83.0167 146° Southeast 176 203 9,000  Level Jacksonville Center
06:41PM 29.5192 -83.0000 154° Southeast 178 205 9,000  Level Jacksonville Center
06:42PM 29.5044 -82.9881 145° Southeast 176 203 9,000  Level Jacksonville Center
06:42PM 29.4814 -82.9736 151° Southeast 176 203 9,000  Level Jacksonville Center
06:43PM 29.4564 -82.9569 150° Southeast 182 209 9,000  Level Jacksonville Center
06:43PM 29.4378 -82.9450 151° Southeast 174 200 9,000  Level Jacksonville Center
06:44PM 29.4147 -82.9308 152° Southeast 177 204 9,000  Level Jacksonville Center
06:44PM 29.3958 -82.9189 151° Southeast 174 200 9,000  Level Jacksonville Center
06:45PM 29.3731 -82.9022 147° Southeast 177 204 9,000  Level Jacksonville Center
06:45PM 29.3542 -82.8925 156° South 175 201 9,000  Level Jacksonville Center
06:46PM 29.3311 -82.8758 148° Southeast 177 204 9,000  Level Jacksonville Center
06:46PM 29.3042 -82.8592 152° Southeast 175 201 9,000  Level Jacksonville Center
06:47PM 29.2622 -82.8306 149° Southeast 175 201 9,000  Level Jacksonville Center
06:48PM 29.2142 -82.7997 151° Southeast 173 199 9,000  Level Jacksonville Center
06:49PM 29.1831 -82.7831 155° Southeast 174 200 9,000  Level Jacksonville Center
06:50PM 29.1308 -82.7475 149° Southeast 175 201 9,000  Level Jacksonville Center
06:51PM 29.0931 -82.7214 149° Southeast 174 200 9,000  Level Jacksonville Center
06:52PM 29.0431 -82.6883 150° Southeast 174 200 9,000  Level Jacksonville Center
06:54PM 28.9969 -82.6600 152° Southeast 174 200 9,000  Level Jacksonville Center
06:55PM 28.9511 -82.6317 152° Southeast 178 205 9,000  Level Jacksonville Center
06:55PM 28.9217 -82.6128 151° Southeast 176 203 9,000  Level Jacksonville Center
06:56PM 28.8819 -82.5844 148° Southeast 175 201 9,000  Level Jacksonville Center
06:58PM 28.8214 -82.5489 153° Southeast 176 203 9,000  Level Jacksonville Center
07:00PM 28.7333 -82.4833 147° Southeast 176 203 9,000  Level Tampa TRACON
07:01PM 28.6833 -82.4667 164° South 177 204 9,000  Level Tampa TRACON
07:02PM 28.6333 -82.4333 150° Southeast 176 203 9,000  Level Tampa TRACON
07:03PM 28.6000 -82.4000 139° Southeast 176 203 9,000  Level Tampa TRACON
07:04PM 28.5500 -82.3833 164° South 177 204 9,000  Level Tampa TRACON
07:05PM 28.5167 -82.3500 139° Southeast 182 209 9,000  Level Tampa TRACON
07:06PM 28.4667 -82.3167 150° Southeast 182 209 9,000  Level Tampa TRACON
07:07PM 28.4333 -82.3000 156° South 180 207 9,000  Level Tampa TRACON
07:08PM 28.3833 -82.2667 150° Southeast 182 209 9,000  Level Tampa TRACON
07:09PM 28.3333 -82.2333 150° Southeast 179 206 9,000  Level Tampa TRACON
07:10PM 28.3000 -82.2167 156° South 177 204 9,000  Level Tampa TRACON
07:11PM 28.2500 -82.1833 150° Southeast 182 209 9,000  Level Tampa TRACON
07:12PM 28.2167 -82.1500 139° Southeast 178 205 9,000  Level Tampa TRACON
07:13PM 28.1667 -82.1333 164° South 181 208 9,000  Level Tampa TRACON
07:14PM 28.1167 -82.1000 150° Southeast 182 209 9,000  Level Tampa TRACON
07:16PM 28.0133 -82.0328 150° Southeast 165 190 9,000  Level Miami Center
07:17PM 27.9706 -82.0050 150° Southeast 172 198 9,000  Level Miami Center
07:18PM 27.9233 -81.9864 161° South 182 209 9,000  Level Miami Center
07:19PM 27.8731 -81.9889 183° South 177 204 9,000  Level Miami Center
07:20PM 27.8231 -81.9889 180° South 177 204 9,000  Level Miami Center
07:21PM 27.7731 -81.9889 180° South 177 204 9,000  Level Miami Center
07:22PM 27.7250 -81.9869 178° South 177 204 9,000  Level Miami Center
07:23PM 27.6792 -81.9869 180° South 177 204 9,000  Level Miami Center
07:24PM 27.6311 -81.9872 180° South 177 204 9,000  Level Miami Center
07:25PM 27.5769 -81.9872 180° South 182 209 9,000  Level Miami Center
07:26PM 27.5350 -81.9900 183° South 177 204 9,000  Level Miami Center
07:27PM 27.4869 -81.9903 180° South 177 204 9,000  Level Miami Center
07:28PM 27.4389 -81.9903 180° South 177 204 9,000  Level Miami Center
07:29PM 27.3911 -81.9906 180° South 177 204 9,000 -60 Level Miami Center
07:30PM 27.3431 -81.9908 180° South 177 204 8,900 -360 Descending Miami Center
07:31PM 27.2908 -81.9931 182° South 182 209 8,300 -600 Descending Miami Center
07:32PM 27.2386 -81.9931 180° South 187 215 7,800 -600 Descending Miami Center
07:33PM 27.1822 -81.9906 178° South 197 227 7,200 -420 Descending Miami Center
07:34PM 27.1300 -81.9906 180° South 197 227 7,000 -120 Descending Miami Center
07:35PM 27.0819 -81.9933 183° South 192 221 7,000  Level Miami Center
07:36PM 27.0386 -81.9819 167° South 181 208 7,000  Level Miami Center
07:37PM 26.9847 -81.9703 169° South 176 203 7,000  Level Miami Center
07:38PM 26.9372 -81.9589 168° South 182 209 7,000  Level Miami Center
07:40PM 26.8924 -81.9764 166° South  Level FlightAware Approximate
07:47PM 26.5636 -81.8826 167° South  Level FlightAware Approximate
07:48PM 26.5163 -81.8707 167° South  Level FlightAware Approximate
07:49PM 26.4690 -81.8589 167° South  Level FlightAware Approximate
07:50PM 26.4218 -81.8465 165° South  Level FlightAware Approximate
07:51PM 26.3751 -81.8320 165° South  Level FlightAware Approximate
07:52PM 26.3284 -81.8177 165° South  Level FlightAware Approximate
07:53PM 26.2816 -81.8033 165° South  Level FlightAware Approximate
07:54PM 26.2349 -81.7889 165° South  Level FlightAware Approximate
07:55PM 26.1878 -81.7761 167° South  Level FlightAware Approximate
07:56PM 26.1500 -81.7667 167° South  Level FlightAware Approximate
07:57PM 26.1524 -81.7756 167° South  Level Estimated
07:58PM 26.1524 -81.7756 167° South  Level Estimated
07:59PM 26.1524 -81.7756 167° South  Level Estimated
08:00PM 26.1524 -81.7756 167° South  Level Estimated
08:01PM 26.1524 -81.7756 167° South  Level Estimated
08:02PM 26.1524 -81.7756 167° South  Level Estimated
08:03PM 26.1524 -81.7756 167° South  Level Estimated
08:04PM 26.1524 -81.7756 167° South  Level Estimated
08:05PM 26.1524 -81.7756 167° South  Level Estimated
08:06PM 26.1524 -81.7756 167° South  Level Estimated
08:07PM 26.1524 -81.7756 167° South  Level Estimated
08:08PM 26.1524 -81.7756 167° South  Level Estimated
08:09PM 26.1524 -81.7756 167° South  Level Estimated
08:10PM 26.1524 -81.7756 167° South  Level Estimated
08:11PM 26.1524 -81.7756 167° South  Level Estimated
08:12PM 26.1524 -81.7756 167° South  Level Estimated
08:13PM 26.1524 -81.7756 167° South  Level Estimated